Lulu Pass Weather Station

This weather station provides temperature, relative humidity (RH), wind speed, gust or max wind speed, and wind direction at 10014ft near Lulu Pass at the head of Fisher Creek. This data can be used with temperature and precipitation data from the Fisher Creek SNOTEL site.

This weather station was purchased by the Friends of the Avalanche Center.

If the data has not been updated recently you can view it directly on datagarrison.com

Elevation
10014ft
Jump to table bottom
Date Time Temperature
deg F
RH, % Wind Speed Wind Gust Wind Direction
05/18/18 08:00 48.7 51 0 0 N - 351
05/18/18 07:00 48.4 51 0 0 N - 351
05/18/18 06:00 48.8 51 0 0 N - 351
05/18/18 05:00 49.6 50 0 0 N - 351
05/18/18 04:00 50.7 50 0 0 N - 351
05/18/18 03:00 52.0 49 0 0 N - 351
05/18/18 02:00 53.2 49 0 0 N - 351
05/18/18 01:00 54.9 49 0 0 N - 351
05/18/18 00:00 56.2 48 0 0 N - 351
05/17/18 23:00 58.4 47 0 0 N - 351
05/17/18 22:00 60.2 47 0 0 N - 351
05/17/18 21:00 62.3 47 0 0 N - 351
05/17/18 20:00 65.0 47 0 1 N - 347
05/17/18 19:00 67.3 44 0 0 NW - 334
05/17/18 18:00 72.4 43 0 0 NW - 333
05/17/18 17:00 75.4 37 0 0 NW - 333
05/17/18 16:00 88.4 28 0 0 NW - 333
05/17/18 15:00 83.3 33 0 0 NW - 333
05/17/18 14:00 80.7 33 0 0 NW - 333
05/17/18 13:00 75.5 35 0 0 NW - 333
05/17/18 12:00 79.9 34 0 0 NW - 333
05/17/18 11:00 72.0 39 0 0 NW - 333
05/17/18 10:00 59.2 46 0 0 NW - 333
05/17/18 09:00 54.4 42 0 0 NW - 333
05/17/18 08:00 53.6 40 0 0 NW - 333
05/17/18 07:00 47.5 44 0 0 NW - 333
05/17/18 06:00 45.4 44 0 0 NW - 333
05/17/18 05:00 45.5 45 0 0 NW - 333
05/17/18 04:00 46.8 45 0 0 NW - 333
05/17/18 03:00 48.3 44 0 0 NW - 333
05/17/18 02:00 50.2 44 0 0 NW - 333
05/17/18 01:00 52.0 43 0 0 NW - 333
05/17/18 00:00 54.3 43 0 0 NW - 333
05/16/18 23:00 57.1 42 0 0 NW - 333
05/16/18 22:00 60.9 41 0 0 NW - 333
05/16/18 21:00 64.4 39 0 0 NW - 334
05/16/18 20:00 71.1 36 0 0 NW - 334
05/16/18 19:00 80.2 31 0 0 NW - 334
05/16/18 18:00 91.5 25 0 0 NW - 334
05/16/18 17:00 98.5 23 0 0 NW - 334
05/16/18 16:00 99.6 21 0 2 W - 263
05/16/18 15:00 95.0 29 0 0 W - 258
05/16/18 14:00 76.3 37 0 0 W - 260
05/16/18 13:00 80.4 31 0 0 W - 260
05/16/18 12:00 70.3 32 0 0 W - 260
05/16/18 11:00 67.1 33 0 0 W - 260
05/16/18 10:00 59.5 34 0 0 W - 260
05/16/18 09:00 55.4 35 0 0 W - 260
05/16/18 08:00 51.7 36 0 0 W - 260
05/16/18 07:00 48.5 36 0 0 W - 260
https://datagarrison.com/users/300034012539980/300234064338030/temp/300234064338030_live.txt